Terminal Aerodrome Forecast
Issued by NWS Tampa Bay Area, FL

Current Version | Previous Version | Text Only | Print | Product List | Glossary On
Versions: 1 2 3 4 5 6 7 8 9 10 11 12 13 14 15 16 17 18 19 20 21
434
FTUS42 KTBW 072351
TAFFMY
TAF
KFMY 072351Z 0800/0824 31011KT P6SM SKC
     FM080600 34005KT P6SM FEW250
     FM081500 26007KT P6SM FEW030 SCT250
     FM081800 26012KT P6SM SCT035 SCT250
     FM082200 26013G21KT P6SM FEW030 SCT250=

USA.gov is the U.S. government's official web portal to all federal, state and local government web resources and services.